sensor_id;sensor_type;location;lat;lon;timestamp;pressure;altitude;pressure_sealevel;temperature;humidity
78149;BME280;67396;42.664;23.382;2023-09-19T00:02:17;95350.16;;;17.03;61.33
78149;BME280;67396;42.664;23.382;2023-09-19T00:04:43;95367.59;;;17.04;61.41
78149;BME280;67396;42.664;23.382;2023-09-19T00:07:09;95366.84;;;17.00;61.33
78149;BME280;67396;42.664;23.382;2023-09-19T00:09:34;95373.13;;;17.04;61.18
78149;BME280;67396;42.664;23.382;2023-09-19T00:12:06;95363.13;;;17.10;61.08
78149;BME280;67396;42.664;23.382;2023-09-19T00:14:32;95357.84;;;17.19;60.95
78149;BME280;67396;42.664;23.382;2023-09-19T00:17:04;95362.31;;;17.13;61.24
78149;BME280;67396;42.664;23.382;2023-09-19T00:19:34;95359.53;;;17.13;61.10
78149;BME280;67396;42.664;23.382;2023-09-19T00:22:00;95360.00;;;17.08;61.30
78149;BME280;67396;42.664;23.382;2023-09-19T00:24:26;95353.31;;;17.05;61.67
78149;BME280;67396;42.664;23.382;2023-09-19T00:26:53;95346.59;;;17.03;61.84
78149;BME280;67396;42.664;23.382;2023-09-19T00:29:19;95349.09;;;16.93;62.36
78149;BME280;67396;42.664;23.382;2023-09-19T00:31:45;95354.63;;;16.93;62.13
78149;BME280;67396;42.664;23.382;2023-09-19T00:34:10;95351.09;;;16.93;62.40
78149;BME280;67396;42.664;23.382;2023-09-19T00:36:37;95349.97;;;16.87;62.84
78149;BME280;67396;42.664;23.382;2023-09-19T00:39:06;95352.19;;;16.69;63.34
78149;BME280;67396;42.664;23.382;2023-09-19T00:41:34;95354.56;;;16.70;63.45
78149;BME280;67396;42.664;23.382;2023-09-19T00:44:03;95349.00;;;16.70;63.29
78149;BME280;67396;42.664;23.382;2023-09-19T00:46:30;95354.66;;;16.56;64.13
78149;BME280;67396;42.664;23.382;2023-09-19T00:48:57;95340.16;;;16.45;64.39
78149;BME280;67396;42.664;23.382;2023-09-19T00:51:25;95335.81;;;16.44;64.10
78149;BME280;67396;42.664;23.382;2023-09-19T00:53:51;95326.25;;;16.48;64.49
78149;BME280;67396;42.664;23.382;2023-09-19T00:56:18;95334.53;;;16.52;64.47
78149;BME280;67396;42.664;23.382;2023-09-19T00:58:44;95339.72;;;16.46;64.62
78149;BME280;67396;42.664;23.382;2023-09-19T01:01:12;95338.22;;;16.42;64.94
78149;BME280;67396;42.664;23.382;2023-09-19T01:03:40;95342.06;;;16.51;64.53
78149;BME280;67396;42.664;23.382;2023-09-19T01:06:06;95337.66;;;16.54;64.25
78149;BME280;67396;42.664;23.382;2023-09-19T01:08:32;95331.09;;;16.41;64.90
78149;BME280;67396;42.664;23.382;2023-09-19T01:11:06;95341.72;;;16.46;64.90
78149;BME280;67396;42.664;23.382;2023-09-19T01:14:07;95339.38;;;16.44;64.71
78149;BME280;67396;42.664;23.382;2023-09-19T01:22:18;95343.19;;;16.61;64.45
78149;BME280;67396;42.664;23.382;2023-09-19T01:30:20;95336.72;;;16.34;65.45
78149;BME280;67396;42.664;23.382;2023-09-19T01:32:51;95338.66;;;16.37;65.31
78149;BME280;67396;42.664;23.382;2023-09-19T01:35:17;95342.22;;;16.37;65.21
78149;BME280;67396;42.664;23.382;2023-09-19T01:37:44;95349.72;;;16.37;65.30
78149;BME280;67396;42.664;23.382;2023-09-19T01:40:12;95335.16;;;16.33;65.44
78149;BME280;67396;42.664;23.382;2023-09-19T01:42:59;95335.09;;;16.36;65.57
78149;BME280;67396;42.664;23.382;2023-09-19T01:45:44;95332.78;;;16.31;65.63
78149;BME280;67396;42.664;23.382;2023-09-19T01:51:29;95337.72;;;16.13;66.26
78149;BME280;67396;42.664;23.382;2023-09-19T01:54:09;95335.38;;;16.11;66.35
78149;BME280;67396;42.664;23.382;2023-09-19T01:56:48;95322.69;;;16.14;66.13
78149;BME280;67396;42.664;23.382;2023-09-19T01:59:24;95331.47;;;16.09;66.58
78149;BME280;67396;42.664;23.382;2023-09-19T02:01:53;95335.00;;;16.09;66.40
78149;BME280;67396;42.664;23.382;2023-09-19T02:04:20;95338.06;;;16.18;66.37
78149;BME280;67396;42.664;23.382;2023-09-19T02:06:45;95346.75;;;16.21;65.88
78149;BME280;67396;42.664;23.382;2023-09-19T02:09:13;95350.69;;;16.23;66.13
78149;BME280;67396;42.664;23.382;2023-09-19T02:11:40;95349.09;;;16.26;65.69
78149;BME280;67396;42.664;23.382;2023-09-19T02:14:06;95349.81;;;16.30;65.70
78149;BME280;67396;42.664;23.382;2023-09-19T02:16:34;95342.34;;;16.27;65.59
78149;BME280;67396;42.664;23.382;2023-09-19T02:19:00;95341.22;;;16.21;65.74
78149;BME280;67396;42.664;23.382;2023-09-19T02:21:26;95343.56;;;16.22;65.89
78149;BME280;67396;42.664;23.382;2023-09-19T02:23:55;95343.97;;;16.21;66.13
78149;BME280;67396;42.664;23.382;2023-09-19T02:26:21;95343.19;;;16.20;67.82
78149;BME280;67396;42.664;23.382;2023-09-19T02:28:47;95348.53;;;16.38;66.69
78149;BME280;67396;42.664;23.382;2023-09-19T02:31:12;95340.53;;;16.47;67.84
78149;BME280;67396;42.664;23.382;2023-09-19T02:33:38;95340.41;;;16.61;65.64
78149;BME280;67396;42.664;23.382;2023-09-19T02:36:04;95325.72;;;16.61;65.17
78149;BME280;67396;42.664;23.382;2023-09-19T02:38:29;95314.25;;;16.59;64.62
78149;BME280;67396;42.664;23.382;2023-09-19T02:40:55;95313.03;;;16.63;64.87
78149;BME280;67396;42.664;23.382;2023-09-19T02:43:22;95312.63;;;16.65;65.09
78149;BME280;67396;42.664;23.382;2023-09-19T02:45:48;95311.03;;;16.67;64.49
78149;BME280;67396;42.664;23.382;2023-09-19T02:48:20;95311.44;;;16.66;64.32
78149;BME280;67396;42.664;23.382;2023-09-19T02:50:49;95297.66;;;16.55;64.88
78149;BME280;67396;42.664;23.382;2023-09-19T02:53:14;95304.97;;;16.42;65.00
78149;BME280;67396;42.664;23.382;2023-09-19T02:55:40;95307.34;;;16.40;65.19
78149;BME280;67396;42.664;23.382;2023-09-19T02:58:06;95304.28;;;16.31;65.29
78149;BME280;67396;42.664;23.382;2023-09-19T03:00:37;95303.59;;;16.23;66.20
78149;BME280;67396;42.664;23.382;2023-09-19T03:03:03;95295.69;;;16.22;65.81
78149;BME280;67396;42.664;23.382;2023-09-19T03:05:29;95300.06;;;16.19;66.24
78149;BME280;67396;42.664;23.382;2023-09-19T03:07:58;95288.38;;;16.04;66.71
78149;BME280;67396;42.664;23.382;2023-09-19T03:10:26;95291.94;;;16.05;66.42
78149;BME280;67396;42.664;23.382;2023-09-19T03:12:53;95298.28;;;16.02;66.52
78149;BME280;67396;42.664;23.382;2023-09-19T03:15:18;95288.44;;;15.97;66.43
78149;BME280;67396;42.664;23.382;2023-09-19T03:17:45;95299.06;;;16.02;66.88
78149;BME280;67396;42.664;23.382;2023-09-19T03:20:11;95297.53;;;15.98;66.50
78149;BME280;67396;42.664;23.382;2023-09-19T03:22:43;95291.28;;;15.90;67.11
78149;BME280;67396;42.664;23.382;2023-09-19T03:25:11;95286.56;;;15.87;67.29
78149;BME280;67396;42.664;23.382;2023-09-19T03:27:38;95290.69;;;15.72;67.37
78149;BME280;67396;42.664;23.382;2023-09-19T03:30:05;95274.09;;;15.68;67.74
78149;BME280;67396;42.664;23.382;2023-09-19T03:32:37;95288.28;;;15.74;67.45
78149;BME280;67396;42.664;23.382;2023-09-19T03:35:08;95286.72;;;15.73;67.79
78149;BME280;67396;42.664;23.382;2023-09-19T03:37:34;95294.25;;;15.69;68.08
78149;BME280;67396;42.664;23.382;2023-09-19T03:39:59;95288.16;;;15.40;68.85
78149;BME280;67396;42.664;23.382;2023-09-19T03:42:30;95289.69;;;15.44;68.73
78149;BME280;67396;42.664;23.382;2023-09-19T03:44:56;95292.00;;;15.57;68.07
78149;BME280;67396;42.664;23.382;2023-09-19T03:47:22;95293.97;;;15.53;68.61
78149;BME280;67396;42.664;23.382;2023-09-19T03:49:47;95300.25;;;15.64;68.05
78149;BME280;67396;42.664;23.382;2023-09-19T03:52:13;95302.13;;;15.74;67.39
78149;BME280;67396;42.664;23.382;2023-09-19T03:54:41;95304.06;;;15.77;67.50
78149;BME280;67396;42.664;23.382;2023-09-19T03:57:07;95302.53;;;15.72;67.46
78149;BME280;67396;42.664;23.382;2023-09-19T03:59:35;95306.13;;;15.69;67.52
78149;BME280;67396;42.664;23.382;2023-09-19T04:02:01;95306.44;;;15.78;67.11
78149;BME280;67396;42.664;23.382;2023-09-19T04:04:27;95306.09;;;15.21;69.40
78149;BME280;67396;42.664;23.382;2023-09-19T04:06:57;95314.06;;;15.05;70.06
78149;BME280;67396;42.664;23.382;2023-09-19T04:09:23;95313.28;;;15.04;70.44
78149;BME280;67396;42.664;23.382;2023-09-19T04:11:48;95316.31;;;15.24;69.98
78149;BME280;67396;42.664;23.382;2023-09-19T04:14:15;95319.88;;;15.28;69.50
78149;BME280;67396;42.664;23.382;2023-09-19T04:16:40;95317.78;;;15.39;69.21
78149;BME280;67396;42.664;23.382;2023-09-19T04:19:06;95326.53;;;15.31;69.51
78149;BME280;67396;42.664;23.382;2023-09-19T04:21:31;95325.66;;;15.44;69.31
78149;BME280;67396;42.664;23.382;2023-09-19T04:23:57;95323.00;;;15.30;69.89
78149;BME280;67396;42.664;23.382;2023-09-19T04:26:26;95326.25;;;15.18;70.75
78149;BME280;67396;42.664;23.382;2023-09-19T04:28:52;95326.25;;;15.18;71.79
78149;BME280;67396;42.664;23.382;2023-09-19T04:31:17;95332.16;;;15.20;70.07
78149;BME280;67396;42.664;23.382;2023-09-19T04:33:44;95314.97;;;14.88;71.26
78149;BME280;67396;42.664;23.382;2023-09-19T04:36:10;95317.44;;;14.72;72.09
78149;BME280;67396;42.664;23.382;2023-09-19T04:38:35;95318.53;;;14.92;71.47
78149;BME280;67396;42.664;23.382;2023-09-19T04:41:01;95314.81;;;15.16;70.48
78149;BME280;67396;42.664;23.382;2023-09-19T04:43:27;95316.25;;;15.35;69.58
78149;BME280;67396;42.664;23.382;2023-09-19T04:45:53;95321.66;;;15.56;68.70
78149;BME280;67396;42.664;23.382;2023-09-19T04:48:22;95316.00;;;15.67;68.11
78149;BME280;67396;42.664;23.382;2023-09-19T04:50:49;95320.28;;;15.75;67.63
78149;BME280;67396;42.664;23.382;2023-09-19T04:53:15;95324.75;;;15.62;68.16
78149;BME280;67396;42.664;23.382;2023-09-19T04:55:40;95315.69;;;15.58;68.39
78149;BME280;67396;42.664;23.382;2023-09-19T04:58:06;95316.78;;;15.71;67.78
78149;BME280;67396;42.664;23.382;2023-09-19T05:00:31;95307.53;;;15.85;67.33
78149;BME280;67396;42.664;23.382;2023-09-19T05:03:00;95310.91;;;16.06;66.60
78149;BME280;67396;42.664;23.382;2023-09-19T05:05:26;95303.56;;;16.27;65.83
78149;BME280;67396;42.664;23.382;2023-09-19T05:07:52;95296.56;;;16.15;66.21
78149;BME280;67396;42.664;23.382;2023-09-19T05:10:19;95301.94;;;16.29;65.90
78149;BME280;67396;42.664;23.382;2023-09-19T05:12:45;95291.84;;;16.46;65.18
78149;BME280;67396;42.664;23.382;2023-09-19T05:15:13;95296.94;;;16.51;65.07
78149;BME280;67396;42.664;23.382;2023-09-19T05:17:49;95294.00;;;16.65;64.37
78149;BME280;67396;42.664;23.382;2023-09-19T05:20:15;95292.53;;;16.87;63.75
78149;BME280;67396;42.664;23.382;2023-09-19T05:22:50;95306.16;;;17.05;63.36
78149;BME280;67396;42.664;23.382;2023-09-19T05:25:15;95303.78;;;17.04;62.76
78149;BME280;67396;42.664;23.382;2023-09-19T05:27:43;95296.25;;;17.04;62.48
78149;BME280;67396;42.664;23.382;2023-09-19T05:30:09;95298.88;;;17.15;62.17
78149;BME280;67396;42.664;23.382;2023-09-19T05:32:35;95288.88;;;17.21;62.07
78149;BME280;67396;42.664;23.382;2023-09-19T05:35:01;95288.28;;;17.33;61.75
78149;BME280;67396;42.664;23.382;2023-09-19T05:37:26;95296.94;;;17.12;62.36
78149;BME280;67396;42.664;23.382;2023-09-19T05:39:52;95292.56;;;17.38;61.66
78149;BME280;67396;42.664;23.382;2023-09-19T05:42:22;95284.25;;;17.38;61.74
78149;BME280;67396;42.664;23.382;2023-09-19T05:44:50;95287.38;;;17.66;60.80
78149;BME280;67396;42.664;23.382;2023-09-19T05:47:17;95282.03;;;17.99;59.68
78149;BME280;67396;42.664;23.382;2023-09-19T05:49:43;95285.28;;;18.17;58.95
78149;BME280;67396;42.664;23.382;2023-09-19T05:52:09;95282.22;;;18.31;58.59
78149;BME280;67396;42.664;23.382;2023-09-19T05:57:18;95271.72;;;18.39;58.28
78149;BME280;67396;42.664;23.382;2023-09-19T05:59:45;95274.53;;;18.59;58.21
78149;BME280;67396;42.664;23.382;2023-09-19T06:02:10;95273.69;;;18.62;57.41
78149;BME280;67396;42.664;23.382;2023-09-19T06:04:37;95272.91;;;18.61;59.07
78149;BME280;67396;42.664;23.382;2023-09-19T06:07:06;95272.56;;;18.95;57.00
78149;BME280;67396;42.664;23.382;2023-09-19T06:09:31;95276.25;;;18.53;58.00
78149;BME280;67396;42.664;23.382;2023-09-19T06:11:58;95276.53;;;18.78;57.64
78149;BME280;67396;42.664;23.382;2023-09-19T06:14:23;95272.22;;;18.93;57.10
78149;BME280;67396;42.664;23.382;2023-09-19T06:16:55;95263.22;;;19.05;57.02
78149;BME280;67396;42.664;23.382;2023-09-19T06:19:20;95265.78;;;18.96;56.86
78149;BME280;67396;42.664;23.382;2023-09-19T06:21:48;95272.31;;;18.90;57.04
78149;BME280;67396;42.664;23.382;2023-09-19T06:24:14;95273.38;;;18.76;57.44
78149;BME280;67396;42.664;23.382;2023-09-19T06:26:40;95267.63;;;18.67;57.87
78149;BME280;67396;42.664;23.382;2023-09-19T06:29:05;95262.50;;;18.46;58.38
78149;BME280;67396;42.664;23.382;2023-09-19T06:31:33;95262.34;;;18.33;59.28
78149;BME280;67396;42.664;23.382;2023-09-19T06:33:59;95263.25;;;18.26;58.64
78149;BME280;67396;42.664;23.382;2023-09-19T06:36:25;95260.34;;;18.33;58.83
78149;BME280;67396;42.664;23.382;2023-09-19T06:38:50;95260.19;;;18.40;58.92
78149;BME280;67396;42.664;23.382;2023-09-19T06:41:19;95255.56;;;18.54;59.09
78149;BME280;67396;42.664;23.382;2023-09-19T06:43:44;95265.41;;;18.58;58.24
78149;BME280;67396;42.664;23.382;2023-09-19T06:46:10;95265.00;;;18.60;58.13
78149;BME280;67396;42.664;23.382;2023-09-19T06:48:38;95268.75;;;18.50;57.93
78149;BME280;67396;42.664;23.382;2023-09-19T06:51:03;95269.84;;;18.56;58.14
78149;BME280;67396;42.664;23.382;2023-09-19T06:53:30;95270.47;;;18.43;58.75
78149;BME280;67396;42.664;23.382;2023-09-19T06:55:57;95269.16;;;18.48;58.30
78149;BME280;67396;42.664;23.382;2023-09-19T06:58:23;95270.59;;;18.56;58.68
78149;BME280;67396;42.664;23.382;2023-09-19T07:00:48;95274.25;;;18.53;57.87
78149;BME280;67396;42.664;23.382;2023-09-19T07:03:15;95270.31;;;18.51;58.00
78149;BME280;67396;42.664;23.382;2023-09-19T07:05:47;95272.25;;;18.54;57.80
78149;BME280;67396;42.664;23.382;2023-09-19T07:08:13;95278.06;;;18.63;57.98
78149;BME280;67396;42.664;23.382;2023-09-19T07:10:40;95274.59;;;18.55;58.47
78149;BME280;67396;42.664;23.382;2023-09-19T07:13:07;95278.47;;;18.81;57.75
78149;BME280;67396;42.664;23.382;2023-09-19T07:15:37;95275.50;;;18.88;58.09
78149;BME280;67396;42.664;23.382;2023-09-19T07:18:12;95277.53;;;19.04;58.00
78149;BME280;67396;42.664;23.382;2023-09-19T07:20:40;95273.38;;;19.12;57.79
78149;BME280;67396;42.664;23.382;2023-09-19T07:23:14;95276.19;;;18.92;57.61
78149;BME280;67396;42.664;23.382;2023-09-19T07:25:40;95272.41;;;19.02;57.35
78149;BME280;67396;42.664;23.382;2023-09-19T07:28:06;95279.75;;;19.12;56.81
78149;BME280;67396;42.664;23.382;2023-09-19T07:30:31;95279.03;;;19.08;57.24
78149;BME280;67396;42.664;23.382;2023-09-19T07:32:57;95277.53;;;19.04;56.74
78149;BME280;67396;42.664;23.382;2023-09-19T07:35:22;95276.19;;;18.92;57.38
78149;BME280;67396;42.664;23.382;2023-09-19T07:37:49;95274.56;;;18.95;57.34
78149;BME280;67396;42.664;23.382;2023-09-19T07:40:15;95279.91;;;19.05;56.95
78149;BME280;67396;42.664;23.382;2023-09-19T07:42:41;95273.09;;;18.90;56.83
78149;BME280;67396;42.664;23.382;2023-09-19T07:45:07;95276.19;;;18.92;56.50
78149;BME280;67396;42.664;23.382;2023-09-19T07:47:33;95267.13;;;19.08;56.59
78149;BME280;67396;42.664;23.382;2023-09-19T07:50:00;95272.44;;;19.18;56.90
78149;BME280;67396;42.664;23.382;2023-09-19T07:52:28;95279.88;;;19.41;56.53
78149;BME280;67396;42.664;23.382;2023-09-19T07:54:54;95277.03;;;19.61;55.73
78149;BME280;67396;42.664;23.382;2023-09-19T07:57:20;95279.09;;;19.73;55.47
78149;BME280;67396;42.664;23.382;2023-09-19T07:59:45;95280.16;;;19.63;55.13
78149;BME280;67396;42.664;23.382;2023-09-19T08:02:11;95285.88;;;19.72;54.84
78149;BME280;67396;42.664;23.382;2023-09-19T08:04:45;95275.25;;;19.83;54.53
78149;BME280;67396;42.664;23.382;2023-09-19T08:07:14;95285.88;;;19.88;55.26
78149;BME280;67396;42.664;23.382;2023-09-19T08:09:39;95280.81;;;20.00;54.78
78149;BME280;67396;42.664;23.382;2023-09-19T08:12:06;95282.09;;;20.11;54.44
78149;BME280;67396;42.664;23.382;2023-09-19T08:14:36;95275.16;;;20.32;53.56
78149;BME280;67396;42.664;23.382;2023-09-19T08:17:01;95262.53;;;20.27;52.40
78149;BME280;67396;42.664;23.382;2023-09-19T08:19:27;95267.28;;;20.14;53.02
78149;BME280;67396;42.664;23.382;2023-09-19T08:21:57;95260.13;;;19.84;53.83
78149;BME280;67396;42.664;23.382;2023-09-19T08:24:28;95255.25;;;19.72;54.00
78149;BME280;67396;42.664;23.382;2023-09-19T08:26:55;95254.91;;;19.86;54.19
78149;BME280;67396;42.664;23.382;2023-09-19T08:29:21;95247.72;;;20.02;53.56
78149;BME280;67396;42.664;23.382;2023-09-19T08:31:55;95247.59;;;20.21;52.90
78149;BME280;67396;42.664;23.382;2023-09-19T08:34:22;95248.09;;;20.16;52.95
78149;BME280;67396;42.664;23.382;2023-09-19T08:36:50;95248.94;;;20.29;52.51
78149;BME280;67396;42.664;23.382;2023-09-19T08:39:15;95245.28;;;20.04;53.23
78149;BME280;67396;42.664;23.382;2023-09-19T08:41:42;95258.88;;;20.02;53.31
78149;BME280;67396;42.664;23.382;2023-09-19T08:44:07;95262.44;;;20.02;53.80
78149;BME280;67396;42.664;23.382;2023-09-19T08:46:37;95256.22;;;20.11;53.14
78149;BME280;67396;42.664;23.382;2023-09-19T08:52:40;95249.81;;;20.26;52.10
78149;BME280;67396;42.664;23.382;2023-09-19T08:55:07;95245.56;;;20.38;52.22
78149;BME280;67396;42.664;23.382;2023-09-19T08:57:39;95243.00;;;20.44;52.31
78149;BME280;67396;42.664;23.382;2023-09-19T09:00:08;95247.56;;;20.38;52.38
78149;BME280;67396;42.664;23.382;2023-09-19T09:02:41;95243.47;;;20.26;52.98
78149;BME280;67396;42.664;23.382;2023-09-19T09:05:09;95247.00;;;20.14;53.01
78149;BME280;67396;42.664;23.382;2023-09-19T09:07:40;95240.69;;;20.26;53.11
78149;BME280;67396;42.664;23.382;2023-09-19T09:10:06;95237.69;;;20.33;52.86
78149;BME280;67396;42.664;23.382;2023-09-19T09:12:37;95237.59;;;20.08;52.45
78149;BME280;67396;42.664;23.382;2023-09-19T09:15:06;95232.91;;;20.05;53.15
78149;BME280;67396;42.664;23.382;2023-09-19T09:17:34;95227.59;;;20.23;53.03
78149;BME280;67396;42.664;23.382;2023-09-19T09:20:00;95240.31;;;20.24;52.78
78149;BME280;67396;42.664;23.382;2023-09-19T09:22:25;95223.25;;;20.38;52.49
78149;BME280;67396;42.664;23.382;2023-09-19T09:24:55;95225.81;;;20.45;52.54
78149;BME280;67396;42.664;23.382;2023-09-19T09:27:24;95220.28;;;20.58;52.23
78149;BME280;67396;42.664;23.382;2023-09-19T09:29:51;95216.84;;;20.67;51.53
78149;BME280;67396;42.664;23.382;2023-09-19T09:32:24;95218.16;;;20.62;52.02
78149;BME280;67396;42.664;23.382;2023-09-19T09:37:20;95209.00;;;20.33;53.19
78149;BME280;67396;42.664;23.382;2023-09-19T09:40:00;95200.72;;;20.45;52.94
78149;BME280;67396;42.664;23.382;2023-09-19T09:42:42;95196.41;;;20.70;52.20
78149;BME280;67396;42.664;23.382;2023-09-19T09:45:18;95197.78;;;20.90;51.44
78149;BME280;67396;42.664;23.382;2023-09-19T09:47:59;95194.53;;;20.92;51.02
78149;BME280;67396;42.664;23.382;2023-09-19T09:50:33;95199.22;;;20.95;50.68
78149;BME280;67396;42.664;23.382;2023-09-19T09:53:29;95195.22;;;21.09;50.21
78149;BME280;67396;42.664;23.382;2023-09-19T09:56:07;95192.13;;;21.19;50.69
78149;BME280;67396;42.664;23.382;2023-09-19T09:58:51;95194.44;;;21.21;50.70
78149;BME280;67396;42.664;23.382;2023-09-19T10:01:20;95183.84;;;21.28;49.51
78149;BME280;67396;42.664;23.382;2023-09-19T10:03:46;95186.16;;;21.30;49.61
78149;BME280;67396;42.664;23.382;2023-09-19T10:06:16;95173.56;;;21.25;49.61
78149;BME280;67396;42.664;23.382;2023-09-19T10:09:20;95184.50;;;21.32;49.89
78149;BME280;67396;42.664;23.382;2023-09-19T10:14:13;95186.50;;;21.45;49.05
78149;BME280;67396;42.664;23.382;2023-09-19T10:16:46;95172.28;;;21.52;49.19
78149;BME280;67396;42.664;23.382;2023-09-19T10:19:21;95175.88;;;21.39;50.01
78149;BME280;67396;42.664;23.382;2023-09-19T10:21:50;95175.97;;;21.49;50.35
78149;BME280;67396;42.664;23.382;2023-09-19T10:24:17;95168.44;;;21.58;49.62
78149;BME280;67396;42.664;23.382;2023-09-19T10:26:45;95164.31;;;21.63;49.08
78149;BME280;67396;42.664;23.382;2023-09-19T10:29:13;95164.72;;;21.74;49.13
78149;BME280;67396;42.664;23.382;2023-09-19T10:31:42;95168.19;;;21.78;49.01
78149;BME280;67396;42.664;23.382;2023-09-19T10:34:17;95165.53;;;21.96;48.25
78149;BME280;67396;42.664;23.382;2023-09-19T10:36:46;95157.50;;;21.98;48.07
78149;BME280;67396;42.664;23.382;2023-09-19T10:39:16;95159.94;;;21.96;48.47
78149;BME280;67396;42.664;23.382;2023-09-19T10:41:50;95151.50;;;21.87;48.86
78149;BME280;67396;42.664;23.382;2023-09-19T10:44:23;95156.41;;;21.83;49.09
78149;BME280;67396;42.664;23.382;2023-09-19T10:46:49;95153.69;;;21.92;49.22
78149;BME280;67396;42.664;23.382;2023-09-19T10:49:15;95158.16;;;22.02;48.70
78149;BME280;67396;42.664;23.382;2023-09-19T10:51:42;95145.47;;;22.10;48.68
78149;BME280;67396;42.664;23.382;2023-09-19T10:54:16;95147.97;;;21.96;49.44
78149;BME280;67396;42.664;23.382;2023-09-19T10:56:46;95147.19;;;21.95;49.91
78149;BME280;67396;42.664;23.382;2023-09-19T10:59:18;95144.56;;;22.13;49.23
78149;BME280;67396;42.664;23.382;2023-09-19T11:01:51;95141.78;;;22.13;48.08
78149;BME280;67396;42.664;23.382;2023-09-19T11:04:31;95137.88;;;22.11;49.48
78149;BME280;67396;42.664;23.382;2023-09-19T11:07:09;95136.63;;;22.12;48.37
78149;BME280;67396;42.664;23.382;2023-09-19T11:09:47;95140.00;;;22.29;48.00
78149;BME280;67396;42.664;23.382;2023-09-19T11:14:55;95128.88;;;22.38;47.77
78149;BME280;67396;42.664;23.382;2023-09-19T11:30:35;95116.41;;;22.08;49.12
78149;BME280;67396;42.664;23.382;2023-09-19T11:36:10;95108.28;;;22.23;48.86
78149;BME280;67396;42.664;23.382;2023-09-19T11:49:30;95086.31;;;22.43;47.61
78149;BME280;67396;42.664;23.382;2023-09-19T11:51:58;95077.97;;;22.52;47.62
78149;BME280;67396;42.664;23.382;2023-09-19T11:54:31;95075.84;;;22.65;47.17
78149;BME280;67396;42.664;23.382;2023-09-19T11:57:00;95079.91;;;22.73;46.84
78149;BME280;67396;42.664;23.382;2023-09-19T11:59:27;95074.53;;;22.79;46.87
78149;BME280;67396;42.664;23.382;2023-09-19T12:02:04;95078.00;;;22.61;47.14
78149;BME280;67396;42.664;23.382;2023-09-19T12:04:40;95082.34;;;22.62;47.05
78149;BME280;67396;42.664;23.382;2023-09-19T12:07:14;95078.97;;;22.67;47.53
78149;BME280;67396;42.664;23.382;2023-09-19T12:10:04;95075.78;;;22.78;46.82
78149;BME280;67396;42.664;23.382;2023-09-19T12:12:31;95074.31;;;22.73;46.58
78149;BME280;67396;42.664;23.382;2023-09-19T12:14:59;95071.09;;;22.75;46.33
78149;BME280;67396;42.664;23.382;2023-09-19T12:17:41;95058.44;;;22.70;47.07
78149;BME280;67396;42.664;23.382;2023-09-19T12:20:10;95059.13;;;22.74;46.76
78149;BME280;67396;42.664;23.382;2023-09-19T12:22:45;95060.06;;;22.80;47.30
78149;BME280;67396;42.664;23.382;2023-09-19T12:25:14;95056.03;;;22.81;47.85
78149;BME280;67396;42.664;23.382;2023-09-19T12:27:49;95053.56;;;22.83;47.82
78149;BME280;67396;42.664;23.382;2023-09-19T12:30:27;95046.72;;;22.84;47.30
78149;BME280;67396;42.664;23.382;2023-09-19T12:32:53;95046.56;;;22.97;46.99
78149;BME280;67396;42.664;23.382;2023-09-19T12:35:29;95042.41;;;23.02;46.53
78149;BME280;67396;42.664;23.382;2023-09-19T12:37:55;95031.19;;;23.02;46.39
78149;BME280;67396;42.664;23.382;2023-09-19T12:40:22;95027.94;;;23.03;46.32
78149;BME280;67396;42.664;23.382;2023-09-19T12:42:54;95031.19;;;23.02;46.58
78149;BME280;67396;42.664;23.382;2023-09-19T12:45:23;95035.56;;;23.03;46.12
78149;BME280;67396;42.664;23.382;2023-09-19T12:48:19;95027.94;;;23.03;46.20
78149;BME280;67396;42.664;23.382;2023-09-19T12:56:12;95015.78;;;23.06;46.41
78149;BME280;67396;42.664;23.382;2023-09-19T12:58:58;95026.53;;;23.08;46.72
78149;BME280;67396;42.664;23.382;2023-09-19T13:01:28;95021.41;;;23.15;46.26
78149;BME280;67396;42.664;23.382;2023-09-19T13:04:16;95018.16;;;23.17;46.22
78149;BME280;67396;42.664;23.382;2023-09-19T13:06:47;95011.91;;;23.22;46.34
78149;BME280;67396;42.664;23.382;2023-09-19T13:09:15;95010.38;;;23.21;46.20
78149;BME280;67396;42.664;23.382;2023-09-19T13:11:41;95001.03;;;23.15;46.18
78149;BME280;67396;42.664;23.382;2023-09-19T13:17:08;95000.25;;;23.14;46.29
78149;BME280;67396;42.664;23.382;2023-09-19T13:19:49;95000.56;;;23.16;46.17
78149;BME280;67396;42.664;23.382;2023-09-19T13:22:45;94999.97;;;23.21;46.07
78149;BME280;67396;42.664;23.382;2023-09-19T13:25:16;94998.84;;;23.19;46.07
78149;BME280;67396;42.664;23.382;2023-09-19T13:27:50;95002.91;;;23.18;46.08
78149;BME280;67396;42.664;23.382;2023-09-19T13:30:18;95003.22;;;23.20;46.37
78149;BME280;67396;42.664;23.382;2023-09-19T13:32:44;94987.66;;;23.19;46.49
78149;BME280;67396;42.664;23.382;2023-09-19T13:35:10;94983.75;;;23.25;46.16
78149;BME280;67396;42.664;23.382;2023-09-19T13:37:36;94982.19;;;23.24;46.04
78149;BME280;67396;42.664;23.382;2023-09-19T13:40:05;94975.69;;;23.27;46.22
78149;BME280;67396;42.664;23.382;2023-09-19T13:42:30;94977.06;;;23.32;45.94
78149;BME280;67396;42.664;23.382;2023-09-19T13:44:57;94981.41;;;23.42;45.72
78149;BME280;67396;42.664;23.382;2023-09-19T13:47:22;94972.09;;;23.45;45.65
78149;BME280;67396;42.664;23.382;2023-09-19T13:49:50;94973.34;;;23.44;45.60
78149;BME280;67396;42.664;23.382;2023-09-19T13:52:21;94981.59;;;23.48;45.75
78149;BME280;67396;42.664;23.382;2023-09-19T13:54:49;94976.16;;;23.53;44.91
78149;BME280;67396;42.664;23.382;2023-09-19T13:57:15;94980.50;;;23.63;45.00
78149;BME280;67396;42.664;23.382;2023-09-19T13:59:41;94971.94;;;23.58;45.10
78149;BME280;67396;42.664;23.382;2023-09-19T14:02:07;94967.09;;;23.58;45.04
78149;BME280;67396;42.664;23.382;2023-09-19T14:04:32;94963.69;;;23.63;44.92